Time;durP1;ratioP1;P1;durP2;ratioP2;P2;SDS_P1;SDS_P2;PMS_P1;PMS_P2;Temp;Humidity;BMP_temperature;BMP_pressure;BME280_temperature;BME280_humidity;BME280_pressure;Samples;Min_cycle;Max_cycle;Signal;HPM_P1;HPM_P2
2021/03/22 00:02:15;;;;;;;17.23;4.67;;;6.70;99.90;;;;;;5080529;28;20208;-83
2021/03/22 00:04:41;;;;;;;14.40;3.80;;;6.60;99.90;;;;;;5120620;27;20215;-82
2021/03/22 00:07:07;;;;;;;15.03;3.93;;;6.50;99.90;;;;;;5119010;27;20196;-83
2021/03/22 00:09:33;;;;;;;14.10;3.70;;;6.70;99.90;;;;;;5116289;28;20262;-84
2021/03/22 00:11:58;;;;;;;13.70;3.90;;;6.80;99.90;;;;;;5115413;28;20575;-81
2021/03/22 00:14:24;;;;;;;15.57;4.50;;;6.80;99.90;;;;;;5098694;28;20195;-82
2021/03/22 00:16:50;;;;;;;10.63;3.40;;;6.80;99.90;;;;;;5095358;28;20574;-83
2021/03/22 00:19:15;;;;;;;8.27;3.00;;;6.50;99.90;;;;;;5097196;28;20184;-81
2021/03/22 00:21:41;;;;;;;13.67;3.30;;;6.70;99.90;;;;;;5114137;28;20262;-83
2021/03/22 00:24:07;;;;;;;13.57;3.47;;;6.60;99.90;;;;;;5080953;28;20217;-84
2021/03/22 00:26:34;;;;;;;13.30;4.17;;;6.60;99.90;;;;;;5116166;28;20440;-83
2021/03/22 00:29:00;;;;;;;12.33;3.90;;;6.60;99.90;;;;;;5115346;28;20456;-82
2021/03/22 00:31:26;;;;;;;12.43;3.37;;;6.80;99.90;;;;;;5097540;28;20457;-82
2021/03/22 00:33:52;;;;;;;11.37;3.27;;;6.80;99.90;;;;;;5091695;28;20435;-83
2021/03/22 00:36:18;;;;;;;11.27;3.23;;;6.80;99.90;;;;;;5115612;28;20203;-82
2021/03/22 00:38:43;;;;;;;13.80;3.80;;;6.80;99.90;;;;;;5114939;28;20184;-82
2021/03/22 00:41:12;;;;;;;10.90;3.30;;;6.80;99.90;;;;;;5099623;28;20454;-85
2021/03/22 00:43:37;;;;;;;13.73;3.23;;;6.90;99.90;;;;;;5114264;28;20183;-82
2021/03/22 00:46:04;;;;;;;14.07;4.53;;;6.80;99.90;;;;;;5113876;28;20418;-84
2021/03/22 00:48:35;;;;;;;16.70;5.30;;;6.80;99.90;;;;;;5111477;28;20253;-83
2021/03/22 00:51:06;;;;;;;11.37;3.20;;;6.80;99.90;;;;;;5099648;28;20487;-84
2021/03/22 00:53:32;;;;;;;18.47;4.60;;;6.50;99.90;;;;;;5095382;28;20540;-82
2021/03/22 00:55:58;;;;;;;11.50;4.30;;;6.60;99.90;;;;;;5116741;28;20437;-83
2021/03/22 00:58:23;;;;;;;9.57;2.60;;;6.50;99.90;;;;;;5114930;28;20170;-84
2021/03/22 01:00:53;;;;;;;10.40;2.87;;;6.60;99.90;;;;;;5114771;28;20494;-82
2021/03/22 01:03:23;;;;;;;19.80;3.47;;;6.40;99.90;;;;;;5113893;28;20287;-82
2021/03/22 01:05:48;;;;;;;13.00;3.23;;;6.40;99.90;;;;;;5105284;28;20421;-84
2021/03/22 01:08:15;;;;;;;10.97;3.20;;;6.50;99.90;;;;;;5115432;28;20518;-84
2021/03/22 01:10:48;;;;;;;16.27;4.53;;;6.40;99.90;;;;;;5115388;28;20749;-82
2021/03/22 01:13:21;;;;;;;13.07;4.53;;;6.40;99.90;;;;;;5101782;28;20437;-82
2021/03/22 01:15:48;;;;;;;15.50;3.40;;;6.30;99.90;;;;;;5115175;28;20425;-82
2021/03/22 01:18:16;;;;;;;9.93;3.13;;;6.20;99.90;;;;;;5095140;28;20445;-84
2021/03/22 01:20:46;;;;;;;13.23;3.87;;;6.30;99.90;;;;;;5110388;28;20984;-84
2021/03/22 01:23:12;;;;;;;8.33;2.47;;;6.20;99.90;;;;;;5115170;28;20440;-82
2021/03/22 01:25:39;;;;;;;16.53;3.67;;;6.20;99.90;;;;;;5079938;28;20926;-81
2021/03/22 01:28:05;;;;;;;13.00;3.27;;;6.20;99.90;;;;;;5097239;28;20425;-81
2021/03/22 01:30:44;;;;;;;14.00;3.40;;;6.00;99.90;;;;;;5113165;28;20457;-84
2021/03/22 01:33:12;;;;;;;10.23;3.60;;;6.30;99.90;;;;;;5101108;28;20457;-84
2021/03/22 01:35:38;;;;;;;10.70;3.63;;;6.10;99.90;;;;;;5092435;28;20469;-84
2021/03/22 01:38:05;;;;;;;15.03;4.83;;;6.20;99.90;;;;;;5116000;28;20437;-82
2021/03/22 01:40:46;;;;;;;9.63;3.23;;;6.10;99.90;;;;;;5115254;28;20450;-84
2021/03/22 01:43:40;;;;;;;11.40;3.17;;;6.40;99.90;;;;;;5114747;28;21017;-83
2021/03/22 01:46:06;;;;;;;14.67;4.07;;;6.30;99.90;;;;;;5089669;28;20429;-84
2021/03/22 01:48:32;;;;;;;15.00;3.90;;;6.40;99.90;;;;;;5095406;28;20474;-84
2021/03/22 01:50:58;;;;;;;10.20;3.37;;;6.20;99.90;;;;;;5097793;27;20538;-82
2021/03/22 01:53:24;;;;;;;9.97;3.83;;;6.50;99.90;;;;;;5125077;27;20433;-84
2021/03/22 01:55:50;;;;;;;11.03;3.23;;;6.20;99.90;;;;;;5115422;27;20418;-84
2021/03/22 01:58:16;;;;;;;18.53;4.60;;;6.10;99.90;;;;;;5111564;28;20213;-82
2021/03/22 02:00:41;;;;;;;9.83;3.37;;;6.40;99.90;;;;;;5113741;28;20207;-83
2021/03/22 02:03:09;;;;;;;13.37;4.57;;;6.30;99.90;;;;;;5115032;28;20197;-82
2021/03/22 02:05:40;;;;;;;9.30;3.40;;;6.30;99.90;;;;;;5101354;27;20191;-83
2021/03/22 02:08:32;;;;;;;14.57;3.50;;;6.00;99.90;;;;;;5110246;28;20473;-84
2021/03/22 02:10:58;;;;;;;11.67;4.13;;;6.20;99.90;;;;;;5113890;28;21009;-82
2021/03/22 02:13:31;;;;;;;14.37;4.90;;;6.20;99.90;;;;;;5070119;28;20764;-84
2021/03/22 02:16:13;;;;;;;15.67;4.40;;;6.10;99.90;;;;;;5109142;28;20441;-82
2021/03/22 02:19:13;;;;;;;18.20;4.97;;;6.30;99.90;;;;;;5095030;28;20401;-84
2021/03/22 02:22:10;;;;;;;14.40;3.90;;;6.30;99.90;;;;;;5083044;28;20429;-83
2021/03/22 02:25:02;;;;;;;13.10;3.70;;;6.50;99.90;;;;;;5118420;27;20509;-83
2021/03/22 02:27:37;;;;;;;12.23;4.17;;;6.50;99.90;;;;;;5116233;28;20798;-84
2021/03/22 02:30:45;;;;;;;9.23;3.73;;;6.40;99.90;;;;;;5115031;28;20477;-83
2021/03/22 02:33:32;;;;;;;17.77;4.50;;;6.50;99.90;;;;;;5087037;28;20493;-84
2021/03/22 02:36:01;;;;;;;9.53;5.47;;;6.20;99.90;;;;;;5094454;28;20417;-84
2021/03/22 02:38:39;;;;;;;12.80;4.70;;;6.00;99.90;;;;;;5125668;27;20406;-81
2021/03/22 02:41:19;;;;;;;13.60;4.43;;;6.30;99.90;;;;;;5115250;28;20429;-81
2021/03/22 02:44:01;;;;;;;14.03;3.83;;;6.00;99.90;;;;;;5114091;28;20416;-82
2021/03/22 02:46:28;;;;;;;10.00;3.20;;;6.30;99.90;;;;;;5113025;28;20416;-82
2021/03/22 02:48:54;;;;;;;14.13;3.80;;;6.10;99.90;;;;;;5109210;28;20446;-81
2021/03/22 02:51:53;;;;;;;12.87;4.17;;;6.40;99.90;;;;;;5107374;28;20860;-81
2021/03/22 02:54:48;;;;;;;11.83;3.80;;;6.30;99.90;;;;;;5103381;28;20716;-82
2021/03/22 02:57:24;;;;;;;10.70;4.07;;;6.20;99.90;;;;;;5107077;28;20424;-82
2021/03/22 02:59:57;;;;;;;12.30;3.90;;;6.10;99.90;;;;;;5111495;28;20409;-82
2021/03/22 03:02:25;;;;;;;8.87;4.30;;;6.50;99.90;;;;;;5112115;28;20420;-82
2021/03/22 03:04:50;;;;;;;16.73;3.83;;;6.10;99.90;;;;;;5105158;28;21009;-82
2021/03/22 03:07:25;;;;;;;7.50;3.50;;;6.30;99.90;;;;;;5111807;28;20515;-81
2021/03/22 03:09:51;;;;;;;11.93;4.03;;;6.10;99.90;;;;;;5092376;28;20190;-81
2021/03/22 03:12:21;;;;;;;8.07;3.30;;;6.00;99.90;;;;;;5098923;28;20462;-81
2021/03/22 03:14:50;;;;;;;10.03;4.20;;;6.00;99.90;;;;;;5113060;28;20417;-81
2021/03/22 03:17:17;;;;;;;10.60;4.10;;;6.10;99.90;;;;;;5112375;28;20422;-82
2021/03/22 03:19:43;;;;;;;11.77;4.40;;;6.10;99.90;;;;;;5092030;28;20461;-81
2021/03/22 03:22:09;;;;;;;8.53;4.27;;;6.20;99.90;;;;;;5094555;28;20448;-80
2021/03/22 03:24:40;;;;;;;8.50;3.93;;;6.20;99.90;;;;;;5095269;28;21140;-82
2021/03/22 03:27:07;;;;;;;8.63;3.30;;;6.20;99.90;;;;;;5094647;28;20493;-84
2021/03/22 03:29:33;;;;;;;13.60;4.30;;;6.10;99.90;;;;;;5111356;28;20949;-82
2021/03/22 03:31:59;;;;;;;12.00;4.47;;;6.00;99.90;;;;;;5081940;28;20477;-81
2021/03/22 03:34:25;;;;;;;10.00;5.07;;;6.00;99.90;;;;;;5095290;28;20181;-81
2021/03/22 03:36:51;;;;;;;15.50;7.03;;;6.30;99.90;;;;;;5091114;28;20219;-81
2021/03/22 03:39:16;;;;;;;14.50;6.33;;;6.30;99.90;;;;;;5093001;28;20421;-81
2021/03/22 03:41:43;;;;;;;14.50;6.97;;;6.30;99.90;;;;;;5111044;28;20477;-82
2021/03/22 03:44:10;;;;;;;14.10;7.17;;;6.30;99.90;;;;;;5111336;28;20202;-82
2021/03/22 03:46:37;;;;;;;17.93;6.03;;;6.10;99.90;;;;;;5111280;28;20465;-81
2021/03/22 03:49:03;;;;;;;13.33;6.27;;;6.20;99.90;;;;;;5111645;28;20420;-82
2021/03/22 03:51:31;;;;;;;12.93;6.80;;;6.00;99.90;;;;;;5098228;28;20553;-82
2021/03/22 03:53:56;;;;;;;14.63;7.00;;;6.30;99.90;;;;;;5108814;28;21219;-82
2021/03/22 03:56:22;;;;;;;16.53;6.87;;;6.20;99.90;;;;;;5074265;28;20426;-81
2021/03/22 03:58:47;;;;;;;14.77;6.70;;;6.10;99.90;;;;;;5093096;28;20279;-81
2021/03/22 04:01:13;;;;;;;15.77;6.80;;;5.90;99.90;;;;;;5105451;28;20231;-82
2021/03/22 04:03:40;;;;;;;13.13;6.33;;;6.10;99.90;;;;;;5077130;28;20559;-81
2021/03/22 04:06:09;;;;;;;14.00;6.80;;;6.20;99.90;;;;;;5084151;28;20271;-81
2021/03/22 04:08:38;;;;;;;13.10;6.97;;;6.10;99.90;;;;;;5113866;28;20773;-80
2021/03/22 04:11:06;;;;;;;10.93;6.93;;;6.30;99.90;;;;;;5115798;28;20479;-81
2021/03/22 04:13:33;;;;;;;14.90;7.73;;;5.90;99.90;;;;;;5114391;28;20400;-81
2021/03/22 04:15:59;;;;;;;14.73;6.57;;;6.30;99.90;;;;;;5115804;28;20437;-82
2021/03/22 04:18:25;;;;;;;10.83;6.27;;;6.00;99.90;;;;;;5094393;28;20407;-81
2021/03/22 04:20:51;;;;;;;12.17;6.40;;;6.10;99.90;;;;;;5100694;28;20525;-81
2021/03/22 04:23:17;;;;;;;15.30;7.00;;;6.20;99.90;;;;;;5114465;28;20414;-82
2021/03/22 04:25:43;;;;;;;16.03;7.70;;;6.10;99.90;;;;;;5114523;28;20198;-82
2021/03/22 04:28:09;;;;;;;16.50;7.10;;;6.00;99.90;;;;;;5114918;28;20433;-82
2021/03/22 04:30:34;;;;;;;22.67;8.20;;;6.40;99.90;;;;;;5096254;28;20238;-82
2021/03/22 04:33:00;;;;;;;14.40;6.70;;;6.20;99.90;;;;;;5114404;28;20432;-81
2021/03/22 04:35:27;;;;;;;16.87;7.83;;;6.00;99.90;;;;;;5077068;28;20242;-81
2021/03/22 04:37:53;;;;;;;15.63;8.20;;;6.20;99.90;;;;;;5120172;27;20553;-81
2021/03/22 04:40:25;;;;;;;15.37;7.03;;;5.90;99.90;;;;;;5096339;28;20536;-81
2021/03/22 04:42:51;;;;;;;15.83;7.03;;;6.10;99.90;;;;;;5094373;28;20505;-82
2021/03/22 04:45:19;;;;;;;18.10;7.43;;;6.20;99.90;;;;;;5114291;28;20461;-82
2021/03/22 04:47:45;;;;;;;14.83;7.03;;;6.30;99.90;;;;;;5113951;28;20184;-81
2021/03/22 04:50:12;;;;;;;15.80;7.33;;;6.30;99.90;;;;;;5093037;28;20453;-82
2021/03/22 04:52:38;;;;;;;21.33;7.87;;;6.00;99.90;;;;;;5104352;28;20460;-81
2021/03/22 04:55:05;;;;;;;17.50;7.43;;;6.30;99.90;;;;;;5115072;28;20437;-82
2021/03/22 04:57:32;;;;;;;21.30;8.70;;;6.20;99.90;;;;;;5104127;28;20430;-81
2021/03/22 04:59:59;;;;;;;20.03;8.47;;;6.10;99.90;;;;;;5091970;28;20915;-82
2021/03/22 05:02:24;;;;;;;14.33;8.40;;;6.20;99.90;;;;;;5096665;28;20433;-83
2021/03/22 05:04:50;;;;;;;19.07;7.93;;;6.20;99.90;;;;;;5098096;28;20915;-82
2021/03/22 05:07:17;;;;;;;15.50;9.90;;;5.90;99.90;;;;;;5107034;28;20191;-82
2021/03/22 05:09:44;;;;;;;16.87;8.27;;;6.10;99.90;;;;;;5114964;27;20215;-81
2021/03/22 05:12:11;;;;;;;21.97;9.27;;;6.10;99.90;;;;;;5114608;28;20481;-81
2021/03/22 05:14:37;;;;;;;19.27;8.80;;;6.10;99.90;;;;;;5096630;28;20490;-82
2021/03/22 05:17:03;;;;;;;21.00;8.93;;;6.00;99.90;;;;;;5114037;28;20425;-81
2021/03/22 05:19:30;;;;;;;18.73;8.97;;;6.00;99.90;;;;;;5112319;28;20183;-82
2021/03/22 05:21:57;;;;;;;19.50;8.80;;;5.90;99.90;;;;;;5109151;28;20540;-81
2021/03/22 05:24:24;;;;;;;18.13;8.57;;;5.90;99.90;;;;;;5114465;28;20421;-81
2021/03/22 05:26:50;;;;;;;18.80;9.20;;;5.80;99.90;;;;;;5095766;28;20471;-81
2021/03/22 05:29:16;;;;;;;19.83;9.23;;;5.90;99.90;;;;;;5095451;28;20449;-81
2021/03/22 05:31:42;;;;;;;23.13;8.50;;;5.90;99.90;;;;;;5112870;28;21069;-81
2021/03/22 05:34:08;;;;;;;17.67;9.00;;;5.90;99.90;;;;;;5113088;28;20465;-82
2021/03/22 05:36:34;;;;;;;16.97;8.60;;;5.70;99.90;;;;;;5092259;28;20222;-82
2021/03/22 05:38:59;;;;;;;18.20;8.80;;;5.70;99.90;;;;;;5095451;28;20191;-81
2021/03/22 05:41:27;;;;;;;20.80;9.30;;;5.70;99.90;;;;;;5103376;27;20958;-83
2021/03/22 05:44:05;;;;;;;17.30;9.73;;;5.70;99.90;;;;;;5092517;28;20196;-82
2021/03/22 05:46:52;;;;;;;21.10;10.27;;;5.80;99.90;;;;;;5122017;27;20413;-82
2021/03/22 05:49:39;;;;;;;18.80;10.10;;;5.90;99.90;;;;;;5100536;28;20473;-82
2021/03/22 05:52:33;;;;;;;20.13;9.77;;;5.90;99.90;;;;;;5107458;28;20490;-81
2021/03/22 05:55:05;;;;;;;18.90;9.07;;;6.00;99.90;;;;;;5107174;28;20762;-81
2021/03/22 05:58:01;;;;;;;14.00;8.17;;;5.80;99.90;;;;;;5113845;28;20424;-81
2021/03/22 06:00:58;;;;;;;22.90;9.33;;;6.00;99.90;;;;;;5107333;27;20434;-84
2021/03/22 06:03:38;;;;;;;17.23;8.40;;;5.80;99.90;;;;;;5089658;28;21024;-84
2021/03/22 06:06:27;;;;;;;19.83;8.33;;;5.80;99.90;;;;;;5121360;27;20480;-83
2021/03/22 06:09:02;;;;;;;15.10;7.40;;;5.90;99.90;;;;;;5088301;28;20422;-83
2021/03/22 06:11:34;;;;;;;13.63;8.87;;;6.20;99.90;;;;;;5111178;28;20452;-83
2021/03/22 06:14:07;;;;;;;16.77;8.13;;;6.10;99.90;;;;;;5095822;28;20501;-83
2021/03/22 06:16:38;;;;;;;15.20;7.33;;;6.10;99.90;;;;;;5095751;28;20979;-83
2021/03/22 06:19:16;;;;;;;20.40;8.33;;;6.10;99.90;;;;;;5112622;28;20413;-82
2021/03/22 06:21:46;;;;;;;17.07;6.60;;;6.30;99.90;;;;;;5095119;27;20453;-83
2021/03/22 06:24:30;;;;;;;11.30;5.87;;;6.30;99.90;;;;;;5114732;27;20512;-83
2021/03/22 06:26:59;;;;;;;16.80;6.90;;;6.10;99.90;;;;;;5112011;28;20950;-82
2021/03/22 06:29:34;;;;;;;20.43;6.00;;;6.20;99.90;;;;;;5074175;28;20536;-84
2021/03/22 06:32:04;;;;;;;19.53;6.63;;;6.40;99.90;;;;;;5092675;28;20461;-82
2021/03/22 06:34:44;;;;;;;12.60;7.00;;;6.10;99.90;;;;;;5112096;28;20421;-82
2021/03/22 06:37:13;;;;;;;17.43;6.57;;;6.20;99.90;;;;;;5093677;28;20527;-82
2021/03/22 06:39:45;;;;;;;24.93;7.57;;;6.20;99.90;;;;;;5112867;28;20417;-82
2021/03/22 06:42:25;;;;;;;11.67;5.50;;;6.30;99.90;;;;;;5111278;28;20452;-82
2021/03/22 06:44:52;;;;;;;12.33;5.73;;;6.30;99.90;;;;;;5111609;28;20425;-82
2021/03/22 06:47:38;;;;;;;16.63;6.80;;;6.10;99.90;;;;;;5111260;28;20425;-82
2021/03/22 06:50:26;;;;;;;14.77;5.83;;;6.20;99.90;;;;;;5077693;28;20801;-82
2021/03/22 06:52:53;;;;;;;14.60;6.13;;;6.20;99.90;;;;;;5106008;28;20492;-80
2021/03/22 06:55:39;;;;;;;15.17;5.80;;;6.50;99.90;;;;;;5095526;28;20417;-82
2021/03/22 06:58:05;;;;;;;13.80;8.13;;;6.40;99.90;;;;;;5111452;28;20802;-83
2021/03/22 07:00:37;;;;;;;15.43;5.93;;;6.40;99.90;;;;;;5111405;28;20436;-81
2021/03/22 07:03:22;;;;;;;15.30;6.60;;;6.30;99.90;;;;;;5094517;28;20206;-83
2021/03/22 07:05:48;;;;;;;12.03;5.70;;;6.00;99.90;;;;;;5112879;28;20450;-82
2021/03/22 07:08:35;;;;;;;12.83;5.43;;;6.50;99.90;;;;;;5094161;28;20433;-82
2021/03/22 07:11:01;;;;;;;16.10;7.67;;;6.20;99.90;;;;;;5112070;28;20286;-82
2021/03/22 07:13:33;;;;;;;11.53;6.17;;;6.10;99.90;;;;;;5094437;28;21005;-82
2021/03/22 07:16:05;;;;;;;10.43;6.00;;;6.10;99.90;;;;;;5111097;28;20211;-81
2021/03/22 07:18:32;;;;;;;20.50;8.43;;;6.10;99.90;;;;;;5110691;28;20446;-82
2021/03/22 07:21:04;;;;;;;15.73;7.63;;;6.30;99.90;;;;;;5076977;28;20459;-82
2021/03/22 07:23:54;;;;;;;14.30;8.10;;;6.30;99.90;;;;;;5111742;28;20416;-83
2021/03/22 07:26:29;;;;;;;14.40;6.93;;;6.40;99.90;;;;;;5111282;28;20450;-82
2021/03/22 07:29:40;;;;;;;10.97;7.07;;;6.70;99.90;;;;;;5110835;28;20425;-82
2021/03/22 07:32:45;;;;;;;13.97;7.00;;;6.60;99.90;;;;;;5069119;28;20476;-85
2021/03/22 07:35:38;;;;;;;17.30;7.90;;;6.90;99.90;;;;;;5111482;28;20436;-82
2021/03/22 07:38:38;;;;;;;10.20;6.20;;;6.90;99.90;;;;;;5097889;28;20519;-83
2021/03/22 07:41:34;;;;;;;10.27;6.60;;;7.00;99.90;;;;;;5112483;28;20515;-82
2021/03/22 07:44:12;;;;;;;10.70;7.03;;;7.30;99.90;;;;;;5113710;28;20406;-83
2021/03/22 07:46:49;;;;;;;14.27;7.53;;;7.10;99.90;;;;;;5115895;28;20458;-82
2021/03/22 07:49:30;;;;;;;9.07;5.70;;;7.20;99.90;;;;;;5102493;28;21026;-82
2021/03/22 07:52:06;;;;;;;9.47;5.00;;;7.20;99.90;;;;;;5115697;28;20487;-82
2021/03/22 07:54:31;;;;;;;10.47;6.33;;;7.10;99.90;;;;;;5113705;27;20474;-82
2021/03/22 07:57:27;;;;;;;15.93;5.80;;;7.20;99.90;;;;;;5097198;28;20421;-82
2021/03/22 08:00:11;;;;;;;15.20;5.20;;;7.10;99.90;;;;;;5114608;28;20192;-82
2021/03/22 08:02:52;;;;;;;11.60;6.13;;;7.10;99.90;;;;;;5114950;28;20421;-82
2021/03/22 08:05:32;;;;;;;14.30;6.53;;;7.00;99.90;;;;;;5115074;28;20461;-82
2021/03/22 08:07:59;;;;;;;9.10;5.07;;;7.00;99.90;;;;;;5110771;28;20437;-82
2021/03/22 08:11:06;;;;;;;10.30;4.70;;;7.30;99.90;;;;;;5105247;28;20533;-84
2021/03/22 08:13:43;;;;;;;7.57;4.50;;;7.10;99.90;;;;;;5112321;28;21124;-83
2021/03/22 08:16:11;;;;;;;10.40;4.90;;;7.00;99.90;;;;;;5114547;28;20827;-83
2021/03/22 08:18:52;;;;;;;12.17;4.73;;;7.00;99.90;;;;;;5114350;28;20413;-82
2021/03/22 08:21:34;;;;;;;8.40;4.30;;;6.90;99.90;;;;;;5114028;28;20449;-81
2021/03/22 08:24:25;;;;;;;13.83;4.17;;;6.90;99.90;;;;;;5089226;28;20434;-82
2021/03/22 08:27:01;;;;;;;7.03;4.10;;;7.00;99.90;;;;;;5114058;28;20418;-82
2021/03/22 08:29:31;;;;;;;11.83;4.57;;;6.90;99.90;;;;;;5114213;28;20433;-82
2021/03/22 08:32:31;;;;;;;7.13;3.20;;;7.00;99.90;;;;;;5113273;28;20497;-82
2021/03/22 08:35:25;;;;;;;8.20;4.40;;;7.20;99.90;;;;;;5105002;28;20414;-83
2021/03/22 08:38:04;;;;;;;5.97;3.80;;;7.10;99.90;;;;;;5098730;28;20454;-82
2021/03/22 08:40:39;;;;;;;12.80;4.67;;;6.80;99.90;;;;;;5090936;28;20485;-82
2021/03/22 08:43:12;;;;;;;8.03;3.40;;;7.10;99.90;;;;;;5113723;28;21008;-82
2021/03/22 08:45:59;;;;;;;5.90;3.80;;;7.10;99.90;;;;;;5113386;28;20406;-82
2021/03/22 08:48:29;;;;;;;8.10;2.70;;;7.00;99.90;;;;;;5113719;28;20471;-82
2021/03/22 08:50:57;;;;;;;7.33;4.00;;;7.00;99.90;;;;;;5112743;28;21167;-82
2021/03/22 08:53:26;;;;;;;10.83;3.70;;;7.20;99.90;;;;;;5092394;28;20426;-82
2021/03/22 08:55:59;;;;;;;5.57;3.30;;;7.10;99.90;;;;;;5113170;28;20481;-82
2021/03/22 08:58:28;;;;;;;5.70;3.47;;;7.10;99.90;;;;;;5113567;28;20940;-82
2021/03/22 09:01:21;;;;;;;5.77;3.73;;;7.00;99.90;;;;;;5112956;28;20426;-82
2021/03/22 09:03:51;;;;;;;6.57;3.30;;;7.20;99.90;;;;;;5101317;28;20478;-83
2021/03/22 09:06:29;;;;;;;5.33;3.33;;;7.10;99.90;;;;;;5114408;28;20441;-83
2021/03/22 09:08:55;;;;;;;4.33;3.17;;;7.30;99.90;;;;;;5106816;28;20426;-82
2021/03/22 09:11:26;;;;;;;5.33;3.50;;;7.20;99.90;;;;;;5112601;28;20445;-82
2021/03/22 09:13:59;;;;;;;10.00;3.80;;;7.20;99.90;;;;;;5113112;28;20735;-82
2021/03/22 09:16:25;;;;;;;6.43;2.87;;;7.20;99.90;;;;;;5113290;28;20410;-81
2021/03/22 09:19:13;;;;;;;3.57;3.20;;;7.40;99.90;;;;;;5112466;28;20412;-82
2021/03/22 09:21:45;;;;;;;6.40;2.63;;;7.40;99.90;;;;;;5101243;28;20200;-80
2021/03/22 09:24:39;;;;;;;6.00;3.90;;;7.50;99.90;;;;;;5094473;28;20525;-82
2021/03/22 09:27:17;;;;;;;6.17;3.33;;;7.30;99.90;;;;;;5092448;28;20441;-83
2021/03/22 09:30:02;;;;;;;6.60;3.90;;;7.40;99.90;;;;;;5100562;28;20513;-83
2021/03/22 09:32:34;;;;;;;8.60;5.30;;;7.60;99.90;;;;;;5112072;28;20449;-81
2021/03/22 09:35:18;;;;;;;8.33;5.40;;;7.70;99.90;;;;;;5114473;28;20453;-82
2021/03/22 09:37:54;;;;;;;8.20;5.30;;;7.60;99.90;;;;;;5098762;28;20450;-82
2021/03/22 09:40:22;;;;;;;5.37;3.90;;;7.70;99.90;;;;;;5085934;28;20450;-83
2021/03/22 09:43:11;;;;;;;5.30;3.17;;;7.90;99.90;;;;;;5113392;28;20452;-82
2021/03/22 09:45:53;;;;;;;2.70;1.97;;;7.80;99.90;;;;;;5107758;28;20422;-82
2021/03/22 09:48:32;;;;;;;3.17;2.60;;;7.80;99.90;;;;;;5105878;28;20463;-83
2021/03/22 09:51:04;;;;;;;2.80;2.13;;;7.80;99.90;;;;;;5091592;28;20824;-82
2021/03/22 09:53:55;;;;;;;4.03;2.47;;;8.00;99.90;;;;;;5107377;28;21074;-82
2021/03/22 09:56:38;;;;;;;3.90;2.10;;;7.80;99.90;;;;;;5120367;27;20405;-83
2021/03/22 09:59:27;;;;;;;3.97;1.83;;;7.90;99.90;;;;;;5087576;28;20528;-83
2021/03/22 10:01:54;;;;;;;2.73;1.60;;;8.10;99.90;;;;;;5095562;28;20788;-83
2021/03/22 10:04:22;;;;;;;2.50;1.80;;;7.90;99.90;;;;;;5092036;28;20436;-84
2021/03/22 10:07:06;;;;;;;4.13;2.70;;;7.80;99.90;;;;;;5110178;28;20421;-82
2021/03/22 10:09:49;;;;;;;7.00;3.33;;;7.90;99.90;;;;;;5083150;28;20449;-82
2021/03/22 10:12:29;;;;;;;3.97;3.10;;;7.80;99.90;;;;;;5088030;28;20865;-83
2021/03/22 10:15:13;;;;;;;9.07;3.30;;;7.90;99.90;;;;;;5112881;28;20421;-82
2021/03/22 10:17:56;;;;;;;4.67;4.10;;;7.50;99.90;;;;;;5093342;28;20433;-83
2021/03/22 10:20:42;;;;;;;7.60;3.60;;;7.50;99.90;;;;;;5113597;28;20467;-84
2021/03/22 10:23:26;;;;;;;6.27;3.17;;;7.40;99.90;;;;;;5091638;28;20427;-83
2021/03/22 10:26:11;;;;;;;5.20;3.10;;;7.60;99.90;;;;;;5115675;27;20441;-83
2021/03/22 10:28:41;;;;;;;10.13;3.93;;;7.60;99.90;;;;;;5108209;27;20433;-83
2021/03/22 10:31:17;;;;;;;7.30;4.30;;;7.60;99.90;;;;;;5093690;28;20853;-83
2021/03/22 10:33:53;;;;;;;5.97;4.30;;;7.80;99.90;;;;;;5112135;28;20433;-83
2021/03/22 10:36:37;;;;;;;6.70;4.73;;;7.50;99.90;;;;;;5084764;28;20437;-83
2021/03/22 10:39:05;;;;;;;5.67;4.17;;;7.80;99.90;;;;;;5090575;28;20504;-85
2021/03/22 10:41:38;;;;;;;3.63;2.37;;;7.80;99.90;;;;;;5071636;28;20673;-83
2021/03/22 10:44:15;;;;;;;4.70;2.90;;;7.80;99.90;;;;;;5111692;28;20413;-83
2021/03/22 10:46:42;;;;;;;4.37;2.37;;;7.80;99.90;;;;;;5097989;28;20448;-81
2021/03/22 10:49:10;;;;;;;7.03;2.70;;;8.00;99.90;;;;;;5079202;28;20434;-84
2021/03/22 10:51:42;;;;;;;6.40;2.90;;;8.00;99.90;;;;;;5104661;28;20454;-83
2021/03/22 10:54:17;;;;;;;5.40;2.97;;;7.90;99.90;;;;;;5069873;28;20446;-83
2021/03/22 10:56:45;;;;;;;8.70;3.07;;;8.10;99.90;;;;;;5110736;28;20417;-83
2021/03/22 10:59:34;;;;;;;5.00;3.13;;;8.20;99.90;;;;;;5119387;28;20428;-84
2021/03/22 11:02:10;;;;;;;6.33;3.27;;;8.20;99.90;;;;;;5093940;28;20501;-85
2021/03/22 11:04:38;;;;;;;6.27;3.40;;;8.20;99.90;;;;;;5110919;28;20825;-86
2021/03/22 11:07:33;;;;;;;5.60;2.77;;;8.30;99.90;;;;;;5091913;28;20505;-82
2021/03/22 11:10:03;;;;;;;3.60;1.97;;;8.20;99.90;;;;;;5103038;28;20426;-85
2021/03/22 11:12:31;;;;;;;1.70;1.60;;;8.30;99.90;;;;;;5104121;28;20456;-83
2021/03/22 11:15:07;;;;;;;4.00;2.03;;;8.50;99.90;;;;;;5113230;28;20414;-83
2021/03/22 11:17:34;;;;;;;3.63;2.13;;;8.50;99.90;;;;;;5099130;28;20432;-83
2021/03/22 11:20:07;;;;;;;2.27;1.70;;;8.30;99.90;;;;;;5116444;28;20486;-85
2021/03/22 11:22:35;;;;;;;3.10;2.20;;;8.30;99.90;;;;;;5099418;28;20464;-83
2021/03/22 11:25:07;;;;;;;3.00;2.17;;;8.20;99.90;;;;;;5094342;28;20426;-85
2021/03/22 11:28:04;;;;;;;4.13;2.13;;;8.10;99.90;;;;;;5096637;28;20429;-83
2021/03/22 11:30:52;;;;;;;1.73;1.57;;;8.40;99.90;;;;;;5105865;27;20457;-84
2021/03/22 11:33:30;;;;;;;3.43;1.83;;;8.30;99.90;;;;;;5114956;28;20426;-83
2021/03/22 11:36:30;;;;;;;3.37;2.07;;;8.30;99.90;;;;;;5116102;28;20500;-83
2021/03/22 11:38:58;;;;;;;3.07;2.00;;;8.30;99.90;;;;;;5115826;28;20483;-83
2021/03/22 11:41:29;;;;;;;2.90;1.80;;;8.30;99.90;;;;;;5095056;28;20975;-82
2021/03/22 11:44:21;;;;;;;2.80;2.60;;;8.50;99.90;;;;;;5123611;27;20496;-82
2021/03/22 11:46:56;;;;;;;2.87;2.60;;;8.40;99.90;;;;;;5113721;28;20902;-82
2021/03/22 11:49:43;;;;;;;4.20;2.10;;;8.60;99.90;;;;;;5093635;28;20424;-83
2021/03/22 11:52:15;;;;;;;3.90;2.17;;;8.00;99.90;;;;;;5094419;28;20466;-82
2021/03/22 11:54:55;;;;;;;2.27;1.80;;;8.20;99.90;;;;;;5107411;28;20499;-83
2021/03/22 11:57:28;;;;;;;3.40;2.30;;;8.20;99.90;;;;;;5107763;28;20413;-82
2021/03/22 11:59:57;;;;;;;3.80;2.70;;;8.30;99.90;;;;;;5116016;28;20497;-83
2021/03/22 12:02:27;;;;;;;3.10;2.10;;;8.10;99.90;;;;;;5116327;28;20429;-83
2021/03/22 12:05:03;;;;;;;2.57;1.90;;;8.30;99.90;;;;;;5080464;28;21074;-82
2021/03/22 12:07:38;;;;;;;4.93;2.03;;;8.40;99.90;;;;;;5095630;28;20444;-82
2021/03/22 12:10:14;;;;;;;6.23;2.00;;;8.40;99.90;;;;;;5112782;28;20424;-82
2021/03/22 12:12:40;;;;;;;4.70;2.57;;;8.40;99.90;;;;;;5115756;27;20453;-82
2021/03/22 12:15:06;;;;;;;4.73;2.03;;;8.60;99.90;;;;;;5101453;28;20777;-83
2021/03/22 12:17:32;;;;;;;4.43;2.17;;;8.60;99.90;;;;;;5097645;28;20758;-84
2021/03/22 12:19:58;;;;;;;4.17;2.40;;;8.60;99.90;;;;;;5127477;27;20815;-83
2021/03/22 12:22:25;;;;;;;2.70;2.50;;;8.80;99.90;;;;;;5097357;28;20425;-82
2021/03/22 12:24:51;;;;;;;5.33;2.30;;;8.60;99.90;;;;;;5095659;28;20521;-82
2021/03/22 12:27:20;;;;;;;3.07;2.50;;;8.60;99.90;;;;;;5098875;27;20984;-83
2021/03/22 12:29:46;;;;;;;4.27;2.20;;;8.70;99.90;;;;;;5081909;28;20441;-82
2021/03/22 12:32:26;;;;;;;3.50;2.43;;;8.70;99.90;;;;;;5108681;28;20461;-82
2021/03/22 12:34:53;;;;;;;4.00;1.90;;;8.60;99.90;;;;;;5096882;28;20419;-82
2021/03/22 12:37:26;;;;;;;4.50;2.13;;;8.90;99.90;;;;;;5120531;27;20834;-83
2021/03/22 12:39:53;;;;;;;4.40;2.70;;;8.50;99.90;;;;;;5110401;28;20508;-83
2021/03/22 12:42:19;;;;;;;3.97;2.40;;;8.50;99.90;;;;;;5094062;28;20437;-82
2021/03/22 12:44:45;;;;;;;2.73;1.67;;;8.60;99.90;;;;;;5096465;28;20421;-82
2021/03/22 12:47:19;;;;;;;2.10;1.70;;;8.50;99.90;;;;;;5079778;28;21007;-82
2021/03/22 12:49:45;;;;;;;2.57;1.40;;;8.60;99.90;;;;;;5080116;28;20425;-82
2021/03/22 12:52:11;;;;;;;3.97;1.90;;;8.70;99.90;;;;;;5113157;28;20517;-82
2021/03/22 12:54:37;;;;;;;4.23;1.80;;;8.60;99.90;;;;;;5093570;28;20498;-83
2021/03/22 12:57:03;;;;;;;4.17;1.60;;;8.70;99.90;;;;;;5084186;28;20270;-83
2021/03/22 12:59:40;;;;;;;2.03;1.27;;;8.40;99.90;;;;;;5121123;27;20190;-85
2021/03/22 13:02:19;;;;;;;5.60;1.50;;;8.50;99.90;;;;;;5097221;28;20437;-85
2021/03/22 13:04:46;;;;;;;1.20;1.00;;;8.80;99.90;;;;;;5109370;28;20436;-83
2021/03/22 13:07:12;;;;;;;2.80;1.60;;;8.70;99.90;;;;;;5096726;28;20409;-82
2021/03/22 13:09:39;;;;;;;3.40;1.80;;;8.70;99.90;;;;;;5114259;28;20417;-83
2021/03/22 13:12:13;;;;;;;4.47;2.13;;;8.90;99.90;;;;;;5096767;27;20453;-82
2021/03/22 13:14:39;;;;;;;2.37;1.60;;;8.90;99.90;;;;;;5116793;27;20462;-82
2021/03/22 13:17:04;;;;;;;2.17;1.33;;;8.80;99.90;;;;;;5113582;28;20969;-83
2021/03/22 13:19:30;;;;;;;1.93;1.53;;;8.80;99.90;;;;;;5095510;28;20800;-82
2021/03/22 13:21:57;;;;;;;2.47;1.73;;;8.90;99.90;;;;;;5113215;28;20257;-83
2021/03/22 13:24:23;;;;;;;1.40;1.30;;;8.80;99.90;;;;;;5099416;28;20867;-82